sensor_id;sensor_type;location;lat;lon;timestamp;pressure;altitude;pressure_sealevel;temperature;humidity
14117;BME280;7137;51.436;6.544;2023-02-12T00:01:23;103400.56;;;9.34;97.28
14117;BME280;7137;51.436;6.544;2023-02-12T00:04:25;103406.59;;;9.30;97.90
14117;BME280;7137;51.436;6.544;2023-02-12T00:07:28;103404.81;;;9.29;99.05
14117;BME280;7137;51.436;6.544;2023-02-12T00:10:30;103410.09;;;9.32;98.44
14117;BME280;7137;51.436;6.544;2023-02-12T00:13:33;103403.16;;;9.32;97.53
14117;BME280;7137;51.436;6.544;2023-02-12T00:16:35;103407.50;;;9.32;97.93
14117;BME280;7137;51.436;6.544;2023-02-12T00:19:36;103404.03;;;9.33;97.38
14117;BME280;7137;51.436;6.544;2023-02-12T00:22:38;103400.59;;;9.35;98.03
14117;BME280;7137;51.436;6.544;2023-02-12T00:25:40;103404.22;;;9.43;96.34
14117;BME280;7137;51.436;6.544;2023-02-12T00:28:44;103405.03;;;9.42;96.03
14117;BME280;7137;51.436;6.544;2023-02-12T00:31:45;103404.13;;;9.39;96.55
14117;BME280;7137;51.436;6.544;2023-02-12T00:34:47;103400.75;;;9.44;96.14
14117;BME280;7137;51.436;6.544;2023-02-12T00:37:49;103399.00;;;9.43;96.33
14117;BME280;7137;51.436;6.544;2023-02-12T00:40:50;103403.25;;;9.40;95.71
14117;BME280;7137;51.436;6.544;2023-02-12T00:43:54;103407.59;;;9.39;95.64
14117;BME280;7137;51.436;6.544;2023-02-12T00:46:56;103405.88;;;9.40;96.13
14117;BME280;7137;51.436;6.544;2023-02-12T00:49:57;103401.50;;;9.39;96.00
14117;BME280;7137;51.436;6.544;2023-02-12T00:52:59;103399.72;;;9.36;96.18
14117;BME280;7137;51.436;6.544;2023-02-12T00:56:01;103403.16;;;9.32;94.42
14117;BME280;7137;51.436;6.544;2023-02-12T00:59:04;103404.81;;;9.29;95.51
14117;BME280;7137;51.436;6.544;2023-02-12T01:02:05;103395.28;;;9.29;94.83
14117;BME280;7137;51.436;6.544;2023-02-12T01:05:07;103397.78;;;9.25;96.75
14117;BME280;7137;51.436;6.544;2023-02-12T01:08:10;103395.94;;;9.17;96.95
14117;BME280;7137;51.436;6.544;2023-02-12T01:11:12;103406.50;;;9.27;94.92
14117;BME280;7137;51.436;6.544;2023-02-12T01:14:15;103402.00;;;9.16;95.88
14117;BME280;7137;51.436;6.544;2023-02-12T01:17:17;103398.38;;;9.08;95.86
14117;BME280;7137;51.436;6.544;2023-02-12T01:20:21;103393.09;;;9.05;96.52
14117;BME280;7137;51.436;6.544;2023-02-12T01:23:23;103391.44;;;9.10;96.03
14117;BME280;7137;51.436;6.544;2023-02-12T01:26:26;103400.28;;;9.18;95.31
14117;BME280;7137;51.436;6.544;2023-02-12T01:29:29;103392.25;;;9.06;95.41
14117;BME280;7137;51.436;6.544;2023-02-12T01:32:31;103382.78;;;9.13;95.13
14117;BME280;7137;51.436;6.544;2023-02-12T01:35:32;103383.66;;;9.12;95.52
14117;BME280;7137;51.436;6.544;2023-02-12T01:38:34;103376.03;;;9.22;95.14
14117;BME280;7137;51.436;6.544;2023-02-12T01:41:40;103381.28;;;9.26;95.26
14117;BME280;7137;51.436;6.544;2023-02-12T01:44:44;103389.09;;;9.26;95.01
14117;BME280;7137;51.436;6.544;2023-02-12T01:47:46;103385.72;;;9.30;95.77
14117;BME280;7137;51.436;6.544;2023-02-12T01:50:49;103384.00;;;9.30;94.70
14117;BME280;7137;51.436;6.544;2023-02-12T01:53:53;103383.19;;;9.34;93.14
14117;BME280;7137;51.436;6.544;2023-02-12T01:56:55;103383.16;;;9.33;93.46
14117;BME280;7137;51.436;6.544;2023-02-12T02:00:00;103390.19;;;9.38;92.51
14117;BME280;7137;51.436;6.544;2023-02-12T02:03:04;103390.19;;;9.37;94.06
14117;BME280;7137;51.436;6.544;2023-02-12T02:06:08;103377.09;;;9.35;93.31
14117;BME280;7137;51.436;6.544;2023-02-12T02:09:11;103383.19;;;9.34;93.30
14117;BME280;7137;51.436;6.544;2023-02-12T02:12:13;103373.59;;;9.32;95.20
14117;BME280;7137;51.436;6.544;2023-02-12T02:15:35;103375.31;;;9.31;94.48
14117;BME280;7137;51.436;6.544;2023-02-12T02:18:42;103368.38;;;9.32;93.70
14117;BME280;7137;51.436;6.544;2023-02-12T02:22:01;103363.06;;;9.29;95.34
14117;BME280;7137;51.436;6.544;2023-02-12T02:25:47;103356.16;;;9.29;93.08
14117;BME280;7137;51.436;6.544;2023-02-12T02:28:58;103357.84;;;9.29;93.59
14117;BME280;7137;51.436;6.544;2023-02-12T02:32:07;103357.84;;;9.29;92.24
14117;BME280;7137;51.436;6.544;2023-02-12T02:35:16;103358.81;;;9.32;92.71
14117;BME280;7137;51.436;6.544;2023-02-12T02:38:24;103356.09;;;9.28;92.02
14117;BME280;7137;51.436;6.544;2023-02-12T02:41:33;103356.03;;;9.23;92.96
14117;BME280;7137;51.436;6.544;2023-02-12T02:44:38;103358.59;;;9.20;93.17
14117;BME280;7137;51.436;6.544;2023-02-12T02:47:47;103347.28;;;9.19;94.26
14117;BME280;7137;51.436;6.544;2023-02-12T02:50:52;103351.59;;;9.17;94.01
14117;BME280;7137;51.436;6.544;2023-02-12T02:54:00;103350.72;;;9.17;95.00
14117;BME280;7137;51.436;6.544;2023-02-12T02:57:07;103351.53;;;9.14;95.00
14117;BME280;7137;51.436;6.544;2023-02-12T03:00:13;103360.28;;;9.16;94.47
14117;BME280;7137;51.436;6.544;2023-02-12T03:03:21;103355.88;;;9.14;93.08
14117;BME280;7137;51.436;6.544;2023-02-12T03:06:27;103360.13;;;9.09;93.75
14117;BME280;7137;51.436;6.544;2023-02-12T03:09:34;103352.91;;;8.92;93.34
14117;BME280;7137;51.436;6.544;2023-02-12T03:12:43;103359.09;;;9.01;94.25
14117;BME280;7137;51.436;6.544;2023-02-12T03:15:51;103359.06;;;8.98;93.46
14117;BME280;7137;51.436;6.544;2023-02-12T03:18:59;103359.06;;;8.98;93.34
14117;BME280;7137;51.436;6.544;2023-02-12T03:22:05;103357.16;;;8.87;93.78
14117;BME280;7137;51.436;6.544;2023-02-12T03:25:12;103362.41;;;8.89;94.94
14117;BME280;7137;51.436;6.544;2023-02-12T03:28:18;103359.81;;;8.90;94.12
14117;BME280;7137;51.436;6.544;2023-02-12T03:31:26;103366.78;;;8.91;92.98
14117;BME280;7137;51.436;6.544;2023-02-12T03:34:40;103358.06;;;8.89;93.65
14117;BME280;7137;51.436;6.544;2023-02-12T03:37:52;103359.81;;;8.90;94.07
14117;BME280;7137;51.436;6.544;2023-02-12T03:40:59;103358.91;;;8.88;93.55
14117;BME280;7137;51.436;6.544;2023-02-12T03:44:07;103362.41;;;8.90;94.27
14117;BME280;7137;51.436;6.544;2023-02-12T03:47:17;103366.72;;;8.88;94.63
14117;BME280;7137;51.436;6.544;2023-02-12T03:50:26;103374.56;;;8.88;94.78
14117;BME280;7137;51.436;6.544;2023-02-12T03:53:31;103360.66;;;8.88;94.86
14117;BME280;7137;51.436;6.544;2023-02-12T03:56:36;103362.44;;;8.92;93.91
14117;BME280;7137;51.436;6.544;2023-02-12T03:59:39;103372.94;;;8.97;93.90
14117;BME280;7137;51.436;6.544;2023-02-12T04:02:42;103365.13;;;8.97;93.39
14117;BME280;7137;51.436;6.544;2023-02-12T04:05:45;103367.69;;;8.93;93.53
14117;BME280;7137;51.436;6.544;2023-02-12T04:08:47;103361.56;;;8.91;93.89
14117;BME280;7137;51.436;6.544;2023-02-12T04:12:04;103367.69;;;8.93;93.88
14117;BME280;7137;51.436;6.544;2023-02-12T04:15:20;103380.66;;;8.90;94.01
14117;BME280;7137;51.436;6.544;2023-02-12T04:18:32;103386.72;;;8.89;94.57
14117;BME280;7137;51.436;6.544;2023-02-12T04:21:43;103378.97;;;8.92;93.33
14117;BME280;7137;51.436;6.544;2023-02-12T04:24:57;103385.03;;;8.91;94.14
14117;BME280;7137;51.436;6.544;2023-02-12T04:28:07;103383.31;;;8.92;94.07
14117;BME280;7137;51.436;6.544;2023-02-12T04:31:20;103389.41;;;8.94;93.27
14117;BME280;7137;51.436;6.544;2023-02-12T04:34:28;103392.91;;;8.95;94.12
14117;BME280;7137;51.436;6.544;2023-02-12T04:37:36;103392.94;;;8.98;92.86
14117;BME280;7137;51.436;6.544;2023-02-12T04:40:40;103398.16;;;8.98;92.63
14117;BME280;7137;51.436;6.544;2023-02-12T04:43:42;103399.00;;;8.95;92.02
14117;BME280;7137;51.436;6.544;2023-02-12T04:46:43;103393.72;;;8.92;92.95
14117;BME280;7137;51.436;6.544;2023-02-12T04:49:45;103404.09;;;8.89;93.50
14117;BME280;7137;51.436;6.544;2023-02-12T04:52:48;103400.63;;;8.88;93.97
14117;BME280;7137;51.436;6.544;2023-02-12T04:55:49;103398.88;;;8.87;93.92
14117;BME280;7137;51.436;6.544;2023-02-12T04:58:51;103407.59;;;8.89;94.64
14117;BME280;7137;51.436;6.544;2023-02-12T05:01:58;103405.84;;;8.90;94.00
14117;BME280;7137;51.436;6.544;2023-02-12T05:04:59;103406.72;;;8.89;93.86
14117;BME280;7137;51.436;6.544;2023-02-12T05:08:02;103403.25;;;8.90;93.05
14117;BME280;7137;51.436;6.544;2023-02-12T05:11:05;103407.63;;;8.91;92.70
14117;BME280;7137;51.436;6.544;2023-02-12T05:14:06;103416.31;;;8.91;92.93
14117;BME280;7137;51.436;6.544;2023-02-12T05:17:08;103417.13;;;8.89;92.42
14117;BME280;7137;51.436;6.544;2023-02-12T05:20:10;103418.88;;;8.88;93.31
14117;BME280;7137;51.436;6.544;2023-02-12T05:23:13;103423.19;;;8.88;93.48
14117;BME280;7137;51.436;6.544;2023-02-12T05:26:16;103410.09;;;8.86;92.58
14117;BME280;7137;51.436;6.544;2023-02-12T05:29:18;103418.88;;;8.88;93.53
14117;BME280;7137;51.436;6.544;2023-02-12T05:32:21;103424.94;;;8.89;93.88
14117;BME280;7137;51.436;6.544;2023-02-12T05:35:23;103416.34;;;8.95;92.89
14117;BME280;7137;51.436;6.544;2023-02-12T05:38:25;103413.69;;;8.91;93.24
14117;BME280;7137;51.436;6.544;2023-02-12T05:41:27;103417.19;;;8.92;92.60
14117;BME280;7137;51.436;6.544;2023-02-12T05:44:34;103427.56;;;8.89;91.37
14117;BME280;7137;51.436;6.544;2023-02-12T05:47:35;103423.94;;;8.82;92.48
14117;BME280;7137;51.436;6.544;2023-02-12T05:50:37;103428.41;;;8.88;91.98
14117;BME280;7137;51.436;6.544;2023-02-12T05:53:40;103428.31;;;8.83;93.13
14117;BME280;7137;51.436;6.544;2023-02-12T05:56:43;103429.97;;;8.80;93.07
14117;BME280;7137;51.436;6.544;2023-02-12T05:59:45;103424.81;;;8.83;92.97
14117;BME280;7137;51.436;6.544;2023-02-12T06:02:48;103427.44;;;8.84;93.17
14117;BME280;7137;51.436;6.544;2023-02-12T06:05:49;103426.53;;;8.82;92.93
14117;BME280;7137;51.436;6.544;2023-02-12T06:08:52;103429.13;;;8.81;93.69
14117;BME280;7137;51.436;6.544;2023-02-12T06:11:54;103427.41;;;8.81;92.85
14117;BME280;7137;51.436;6.544;2023-02-12T06:14:56;103428.34;;;8.86;92.68
14117;BME280;7137;51.436;6.544;2023-02-12T06:17:57;103431.91;;;8.88;91.88
14117;BME280;7137;51.436;6.544;2023-02-12T06:20:59;103430.97;;;8.86;92.44
14117;BME280;7137;51.436;6.544;2023-02-12T06:24:02;103431.78;;;8.84;92.51
14117;BME280;7137;51.436;6.544;2023-02-12T06:27:03;103434.38;;;8.82;93.08
14117;BME280;7137;51.436;6.544;2023-02-12T06:30:06;103434.34;;;8.81;92.53
14117;BME280;7137;51.436;6.544;2023-02-12T06:33:08;103427.34;;;8.78;92.48
14117;BME280;7137;51.436;6.544;2023-02-12T06:36:10;103434.31;;;8.79;93.61
14117;BME280;7137;51.436;6.544;2023-02-12T06:39:14;103429.13;;;8.81;93.57
14117;BME280;7137;51.436;6.544;2023-02-12T06:42:17;103435.22;;;8.81;93.25
14117;BME280;7137;51.436;6.544;2023-02-12T06:45:19;103436.13;;;8.83;92.58
14117;BME280;7137;51.436;6.544;2023-02-12T06:48:20;103438.75;;;8.85;92.22
14117;BME280;7137;51.436;6.544;2023-02-12T06:51:22;103435.19;;;8.80;92.81
14117;BME280;7137;51.436;6.544;2023-02-12T06:54:25;103441.22;;;8.77;92.79
14117;BME280;7137;51.436;6.544;2023-02-12T06:57:27;103442.94;;;8.77;93.56
14117;BME280;7137;51.436;6.544;2023-02-12T07:00:30;103445.63;;;8.80;93.45
14117;BME280;7137;51.436;6.544;2023-02-12T07:03:31;103438.66;;;8.80;94.13
14117;BME280;7137;51.436;6.544;2023-02-12T07:06:34;103449.16;;;8.83;93.40
14117;BME280;7137;51.436;6.544;2023-02-12T07:09:37;103454.38;;;8.83;94.16
14117;BME280;7137;51.436;6.544;2023-02-12T07:12:40;103451.03;;;8.90;92.49
14117;BME280;7137;51.436;6.544;2023-02-12T07:15:41;103456.38;;;8.97;91.78
14117;BME280;7137;51.436;6.544;2023-02-12T07:18:44;103456.22;;;8.89;91.14
14117;BME280;7137;51.436;6.544;2023-02-12T07:21:46;103459.59;;;8.85;93.02
14117;BME280;7137;51.436;6.544;2023-02-12T07:24:49;103469.25;;;8.87;93.37
14117;BME280;7137;51.436;6.544;2023-02-12T07:27:51;103467.44;;;8.86;93.52
14117;BME280;7137;51.436;6.544;2023-02-12T07:30:53;103470.13;;;8.88;93.62
14117;BME280;7137;51.436;6.544;2023-02-12T07:33:55;103471.06;;;8.93;93.13
14117;BME280;7137;51.436;6.544;2023-02-12T07:36:57;103472.03;;;8.98;93.50
14117;BME280;7137;51.436;6.544;2023-02-12T07:40:00;103483.47;;;9.05;91.44
14117;BME280;7137;51.436;6.544;2023-02-12T07:43:02;103473.94;;;9.07;91.67
14117;BME280;7137;51.436;6.544;2023-02-12T07:46:11;103466.16;;;9.08;92.08
14117;BME280;7137;51.436;6.544;2023-02-12T07:49:14;103480.25;;;9.16;90.56
14117;BME280;7137;51.436;6.544;2023-02-12T07:52:16;103478.53;;;9.18;92.00
14117;BME280;7137;51.436;6.544;2023-02-12T07:55:19;103483.78;;;9.21;91.11
14117;BME280;7137;51.436;6.544;2023-02-12T07:58:21;103483.78;;;9.21;91.12
14117;BME280;7137;51.436;6.544;2023-02-12T08:01:24;103485.63;;;9.27;90.60
14117;BME280;7137;51.436;6.544;2023-02-12T08:04:26;103483.97;;;9.29;91.12
14117;BME280;7137;51.436;6.544;2023-02-12T08:07:28;103489.25;;;9.34;90.37
14117;BME280;7137;51.436;6.544;2023-02-12T08:10:31;103485.91;;;9.42;89.79
14117;BME280;7137;51.436;6.544;2023-02-12T08:13:33;103497.34;;;9.49;89.34
14117;BME280;7137;51.436;6.544;2023-02-12T08:16:36;103500.88;;;9.52;89.61
14117;BME280;7137;51.436;6.544;2023-02-12T08:19:38;103487.13;;;9.60;90.53
14117;BME280;7137;51.436;6.544;2023-02-12T08:22:39;103488.22;;;9.74;88.23
14117;BME280;7137;51.436;6.544;2023-02-12T08:25:42;103491.84;;;9.83;86.55
14117;BME280;7137;51.436;6.544;2023-02-12T08:28:46;103491.94;;;9.88;86.33
14117;BME280;7137;51.436;6.544;2023-02-12T08:31:49;103498.81;;;9.85;88.94
14117;BME280;7137;51.436;6.544;2023-02-12T08:34:51;103506.78;;;9.91;87.86
14117;BME280;7137;51.436;6.544;2023-02-12T08:37:52;103515.56;;;9.97;87.97
14117;BME280;7137;51.436;6.544;2023-02-12T08:40:55;103519.94;;;9.98;87.02
14117;BME280;7137;51.436;6.544;2023-02-12T08:44:02;103520.03;;;10.03;86.98
14117;BME280;7137;51.436;6.544;2023-02-12T08:47:04;103517.50;;;10.09;85.56
14117;BME280;7137;51.436;6.544;2023-02-12T08:50:07;103516.63;;;10.08;86.88
14117;BME280;7137;51.436;6.544;2023-02-12T08:53:08;103515.97;;;10.20;86.18
14117;BME280;7137;51.436;6.544;2023-02-12T08:56:14;103520.50;;;10.29;86.12
14117;BME280;7137;51.436;6.544;2023-02-12T08:59:16;103518.78;;;10.31;86.23
14117;BME280;7137;51.436;6.544;2023-02-12T09:02:19;103523.22;;;10.38;86.31
14117;BME280;7137;51.436;6.544;2023-02-12T09:05:21;103522.47;;;10.45;86.17
14117;BME280;7137;51.436;6.544;2023-02-12T09:08:22;103528.63;;;10.50;86.48
14117;BME280;7137;51.436;6.544;2023-02-12T09:11:27;103527.06;;;10.61;85.70
14117;BME280;7137;51.436;6.544;2023-02-12T09:14:30;103523.69;;;10.70;85.46
14117;BME280;7137;51.436;6.544;2023-02-12T09:17:32;103525.56;;;10.80;84.40
14117;BME280;7137;51.436;6.544;2023-02-12T09:20:36;103526.53;;;10.88;84.73
14117;BME280;7137;51.436;6.544;2023-02-12T09:23:39;103531.00;;;10.97;84.29
14117;BME280;7137;51.436;6.544;2023-02-12T09:26:42;103533.75;;;11.08;84.07
14117;BME280;7137;51.436;6.544;2023-02-12T09:29:43;103538.22;;;11.18;83.80
14117;BME280;7137;51.436;6.544;2023-02-12T09:32:46;103539.13;;;11.18;83.38
14117;BME280;7137;51.436;6.544;2023-02-12T09:35:47;103529.56;;;11.25;82.51
14117;BME280;7137;51.436;6.544;2023-02-12T09:38:49;103532.28;;;11.31;82.30
14117;BME280;7137;51.436;6.544;2023-02-12T09:42:17;103532.47;;;11.49;80.33
14117;BME280;7137;51.436;6.544;2023-02-12T09:45:22;103537.00;;;11.67;78.81
14117;BME280;7137;51.436;6.544;2023-02-12T09:48:34;103535.34;;;11.74;77.63
14117;BME280;7137;51.436;6.544;2023-02-12T09:51:41;103530.97;;;11.73;77.21
14117;BME280;7137;51.436;6.544;2023-02-12T09:54:45;103530.25;;;11.84;76.44
14117;BME280;7137;51.436;6.544;2023-02-12T09:57:49;103536.41;;;11.96;75.28
14117;BME280;7137;51.436;6.544;2023-02-12T10:00:51;103538.22;;;12.00;71.25
14117;BME280;7137;51.436;6.544;2023-02-12T10:03:53;103535.50;;;11.86;73.72
14117;BME280;7137;51.436;6.544;2023-02-12T10:07:01;103547.84;;;12.01;72.76
14117;BME280;7137;51.436;6.544;2023-02-12T10:10:18;103536.50;;;12.05;74.17
14117;BME280;7137;51.436;6.544;2023-02-12T10:13:35;103542.63;;;12.04;73.96
14117;BME280;7137;51.436;6.544;2023-02-12T10:16:48;103542.72;;;12.17;71.43
14117;BME280;7137;51.436;6.544;2023-02-12T10:20:07;103546.13;;;12.06;73.63
14117;BME280;7137;51.436;6.544;2023-02-12T10:23:41;103543.50;;;12.06;75.03
14117;BME280;7137;51.436;6.544;2023-02-12T10:26:47;103541.94;;;12.31;71.50
14117;BME280;7137;51.436;6.544;2023-02-12T10:29:51;103541.88;;;12.23;69.63
14117;BME280;7137;51.436;6.544;2023-02-12T10:32:57;103544.50;;;12.23;69.74
14117;BME280;7137;51.436;6.544;2023-02-12T10:36:05;103547.94;;;12.11;70.28
14117;BME280;7137;51.436;6.544;2023-02-12T10:39:17;103541.00;;;12.21;68.57
14117;BME280;7137;51.436;6.544;2023-02-12T10:42:25;103539.31;;;12.28;70.25
14117;BME280;7137;51.436;6.544;2023-02-12T10:45:35;103535.78;;;12.24;68.27
14117;BME280;7137;51.436;6.544;2023-02-12T10:48:39;103534.03;;;12.23;68.51
14117;BME280;7137;51.436;6.544;2023-02-12T10:51:54;103531.47;;;12.34;68.17
14117;BME280;7137;51.436;6.544;2023-02-12T10:54:57;103535.94;;;12.44;67.41
14117;BME280;7137;51.436;6.544;2023-02-12T10:58:00;103528.75;;;12.18;68.63
14117;BME280;7137;51.436;6.544;2023-02-12T11:01:04;103528.78;;;12.22;68.58
14117;BME280;7137;51.436;6.544;2023-02-12T11:04:19;103524.50;;;12.34;67.09
14117;BME280;7137;51.436;6.544;2023-02-12T11:07:21;103529.72;;;12.33;66.57
14117;BME280;7137;51.436;6.544;2023-02-12T11:10:28;103525.44;;;12.45;69.41
14117;BME280;7137;51.436;6.544;2023-02-12T11:13:31;103525.44;;;12.45;68.11
14117;BME280;7137;51.436;6.544;2023-02-12T11:16:36;103523.78;;;12.63;66.62
14117;BME280;7137;51.436;6.544;2023-02-12T11:19:40;103524.69;;;12.66;66.55
14117;BME280;7137;51.436;6.544;2023-02-12T11:22:49;103518.53;;;12.60;66.40
14117;BME280;7137;51.436;6.544;2023-02-12T11:25:57;103520.28;;;12.62;67.24
14117;BME280;7137;51.436;6.544;2023-02-12T11:29:04;103519.41;;;12.59;66.31
14117;BME280;7137;51.436;6.544;2023-02-12T11:32:19;103516.81;;;12.63;67.22
14117;BME280;7137;51.436;6.544;2023-02-12T11:35:22;103508.94;;;12.66;66.01
14117;BME280;7137;51.436;6.544;2023-02-12T11:38:33;103513.34;;;12.67;67.87
14117;BME280;7137;51.436;6.544;2023-02-12T11:41:37;103505.38;;;12.52;67.79
14117;BME280;7137;51.436;6.544;2023-02-12T11:44:42;103505.44;;;12.60;68.54
14117;BME280;7137;51.436;6.544;2023-02-12T11:47:46;103493.19;;;12.65;67.43
14117;BME280;7137;51.436;6.544;2023-02-12T11:50:50;103506.31;;;12.63;66.79
14117;BME280;7137;51.436;6.544;2023-02-12T11:53:54;103501.91;;;12.56;69.01
14117;BME280;7137;51.436;6.544;2023-02-12T11:56:57;103489.75;;;12.67;67.22
14117;BME280;7137;51.436;6.544;2023-02-12T12:00:00;103495.00;;;12.67;68.48
14117;BME280;7137;51.436;6.544;2023-02-12T12:03:11;103497.63;;;12.67;68.19
14117;BME280;7137;51.436;6.544;2023-02-12T12:06:21;103499.38;;;12.77;67.46
14117;BME280;7137;51.436;6.544;2023-02-12T12:09:31;103488.94;;;12.90;65.83
14117;BME280;7137;51.436;6.544;2023-02-12T12:12:40;103494.19;;;12.85;68.16
14117;BME280;7137;51.436;6.544;2023-02-12T12:15:44;103481.75;;;12.44;66.90
14117;BME280;7137;51.436;6.544;2023-02-12T12:19:11;103482.63;;;12.43;67.71
14117;BME280;7137;51.436;6.544;2023-02-12T12:22:43;103473.06;;;12.56;67.33
14117;BME280;7137;51.436;6.544;2023-02-12T12:25:48;103474.88;;;12.72;67.63
14117;BME280;7137;51.436;6.544;2023-02-12T12:28:56;103472.31;;;12.83;66.57
14117;BME280;7137;51.436;6.544;2023-02-12T12:32:02;103470.53;;;12.73;65.67
14117;BME280;7137;51.436;6.544;2023-02-12T12:35:09;103461.78;;;12.71;67.96
14117;BME280;7137;51.436;6.544;2023-02-12T12:38:18;103468.78;;;12.72;66.50
14117;BME280;7137;51.436;6.544;2023-02-12T12:41:27;103452.16;;;12.71;67.50
14117;BME280;7137;51.436;6.544;2023-02-12T12:44:52;103450.31;;;12.51;67.45
14117;BME280;7137;51.436;6.544;2023-02-12T12:48:05;103443.25;;;12.34;69.70
14117;BME280;7137;51.436;6.544;2023-02-12T12:51:22;103446.81;;;12.47;67.73
14117;BME280;7137;51.436;6.544;2023-02-12T12:54:39;103446.88;;;12.59;69.48
14117;BME280;7137;51.436;6.544;2023-02-12T12:57:54;103439.00;;;12.59;67.55
14117;BME280;7137;51.436;6.544;2023-02-12T13:01:13;103439.84;;;12.55;67.54
14117;BME280;7137;51.436;6.544;2023-02-12T13:04:44;103439.84;;;12.54;68.90
14117;BME280;7137;51.436;6.544;2023-02-12T13:07:56;103425.75;;;12.30;68.58
14117;BME280;7137;51.436;6.544;2023-02-12T13:11:10;103420.59;;;12.50;68.73
14117;BME280;7137;51.436;6.544;2023-02-12T13:14:30;103421.50;;;12.61;67.33
14117;BME280;7137;51.436;6.544;2023-02-12T13:17:39;103416.25;;;12.55;67.23
14117;BME280;7137;51.436;6.544;2023-02-12T13:20:49;103420.56;;;12.41;68.59
14117;BME280;7137;51.436;6.544;2023-02-12T13:23:58;103403.97;;;12.39;68.08
14117;BME280;7137;51.436;6.544;2023-02-12T13:27:05;103406.47;;;12.22;70.53
14117;BME280;7137;51.436;6.544;2023-02-12T13:30:18;103407.25;;;12.00;69.44
14117;BME280;7137;51.436;6.544;2023-02-12T13:33:22;103401.13;;;12.02;70.50
14117;BME280;7137;51.436;6.544;2023-02-12T13:36:25;103397.72;;;12.15;70.96
14117;BME280;7137;51.436;6.544;2023-02-12T13:39:30;103403.91;;;12.36;71.21
14117;BME280;7137;51.436;6.544;2023-02-12T13:42:41;103395.19;;;12.38;70.12
14117;BME280;7137;51.436;6.544;2023-02-12T13:45:49;103409.16;;;12.34;68.94
14117;BME280;7137;51.436;6.544;2023-02-12T13:48:59;103400.44;;;12.38;68.46
14117;BME280;7137;51.436;6.544;2023-02-12T13:52:10;103396.94;;;12.36;69.11
14117;BME280;7137;51.436;6.544;2023-02-12T13:55:22;103396.03;;;12.28;69.77
14117;BME280;7137;51.436;6.544;2023-02-12T13:58:38;103397.72;;;12.17;70.60
14117;BME280;7137;51.436;6.544;2023-02-12T14:01:42;103395.97;;;12.11;71.26
14117;BME280;7137;51.436;6.544;2023-02-12T14:04:52;103396.94;;;12.36;70.47
14117;BME280;7137;51.436;6.544;2023-02-12T14:07:57;103396.97;;;12.44;70.00
14117;BME280;7137;51.436;6.544;2023-02-12T14:11:06;103391.69;;;12.33;69.29
14117;BME280;7137;51.436;6.544;2023-02-12T14:14:09;103397.78;;;12.29;71.16
14117;BME280;7137;51.436;6.544;2023-02-12T14:17:39;103392.56;;;12.35;69.58
14117;BME280;7137;51.436;6.544;2023-02-12T14:20:42;103397.63;;;11.99;71.06
14117;BME280;7137;51.436;6.544;2023-02-12T14:23:44;103405.50;;;12.03;71.56
14117;BME280;7137;51.436;6.544;2023-02-12T14:26:47;103402.66;;;11.76;72.18
14117;BME280;7137;51.436;6.544;2023-02-12T14:33:23;103394.94;;;11.88;72.03
14117;BME280;7137;51.436;6.544;2023-02-12T14:36:36;103394.81;;;11.73;71.08
14117;BME280;7137;51.436;6.544;2023-02-12T14:39:40;103384.34;;;11.74;71.44
14117;BME280;7137;51.436;6.544;2023-02-12T14:42:54;103385.19;;;11.70;72.13
14117;BME280;7137;51.436;6.544;2023-02-12T14:45:58;103395.59;;;11.67;71.77
14117;BME280;7137;51.436;6.544;2023-02-12T14:49:02;103396.25;;;11.37;72.53
14117;BME280;7137;51.436;6.544;2023-02-12T14:52:13;103400.47;;;11.23;73.21
14117;BME280;7137;51.436;6.544;2023-02-12T14:55:21;103392.63;;;11.21;73.89
14117;BME280;7137;51.436;6.544;2023-02-12T14:58:26;103396.00;;;11.10;74.42
14117;BME280;7137;51.436;6.544;2023-02-12T15:01:32;103397.84;;;11.20;74.40
14117;BME280;7137;51.436;6.544;2023-02-12T15:04:37;103390.97;;;11.33;73.50
14117;BME280;7137;51.436;6.544;2023-02-12T15:07:43;103389.34;;;11.47;73.27
14117;BME280;7137;51.436;6.544;2023-02-12T15:10:48;103385.78;;;11.37;74.08
14117;BME280;7137;51.436;6.544;2023-02-12T15:13:54;103387.34;;;11.15;74.60
14117;BME280;7137;51.436;6.544;2023-02-12T15:17:01;103385.66;;;11.22;74.08
14117;BME280;7137;51.436;6.544;2023-02-12T15:20:07;103376.25;;;11.41;74.77
14117;BME280;7137;51.436;6.544;2023-02-12T15:23:35;103375.38;;;11.40;74.37
14117;BME280;7137;51.436;6.544;2023-02-12T15:26:40;103384.88;;;11.34;75.64
14117;BME280;7137;51.436;6.544;2023-02-12T15:29:45;103376.25;;;11.41;75.12
14117;BME280;7137;51.436;6.544;2023-02-12T15:32:48;103379.75;;;11.44;73.58
14117;BME280;7137;51.436;6.544;2023-02-12T15:35:51;103374.41;;;11.34;74.33
14117;BME280;7137;51.436;6.544;2023-02-12T15:38:54;103369.19;;;11.35;74.86
14117;BME280;7137;51.436;6.544;2023-02-12T15:41:57;103368.34;;;11.38;74.18
14117;BME280;7137;51.436;6.544;2023-02-12T15:45:15;103367.50;;;11.40;74.57
14117;BME280;7137;51.436;6.544;2023-02-12T15:48:19;103366.53;;;11.29;74.59
14117;BME280;7137;51.436;6.544;2023-02-12T15:51:27;103363.81;;;11.17;74.77
14117;BME280;7137;51.436;6.544;2023-02-12T15:54:30;103363.59;;;10.94;75.51
14117;BME280;7137;51.436;6.544;2023-02-12T15:57:32;103357.69;;;11.13;75.55
14117;BME280;7137;51.436;6.544;2023-02-12T16:00:39;103353.31;;;11.12;75.58
14117;BME280;7137;51.436;6.544;2023-02-12T16:03:41;103353.34;;;11.18;75.55
14117;BME280;7137;51.436;6.544;2023-02-12T16:06:43;103354.19;;;11.13;75.44
14117;BME280;7137;51.436;6.544;2023-02-12T16:09:45;103355.97;;;11.17;76.11
14117;BME280;7137;51.436;6.544;2023-02-12T16:12:48;103350.72;;;11.17;75.81
14117;BME280;7137;51.436;6.544;2023-02-12T16:16:05;103357.63;;;11.10;75.17
14117;BME280;7137;51.436;6.544;2023-02-12T16:19:17;103354.22;;;11.19;75.27
14117;BME280;7137;51.436;6.544;2023-02-12T16:22:22;103354.13;;;11.07;75.85
14117;BME280;7137;51.436;6.544;2023-02-12T16:25:28;103362.72;;;10.96;76.09
14117;BME280;7137;51.436;6.544;2023-02-12T16:28:31;103355.81;;;11.02;76.05
14117;BME280;7137;51.436;6.544;2023-02-12T16:31:34;103352.22;;;10.89;76.17
14117;BME280;7137;51.436;6.544;2023-02-12T16:34:37;103353.84;;;10.78;77.49